createdAt,value
2018-08-07T00:02:14.760Z,43.50
2018-08-07T00:04:43.071Z,43.60
2018-08-07T00:07:11.272Z,43.70
2018-08-07T00:12:08.434Z,43.90
2018-08-07T00:14:36.747Z,44.00
2018-08-07T00:17:05.090Z,44.10
2018-08-07T00:19:33.303Z,44.20
2018-08-07T00:22:01.563Z,44.30
2018-08-07T00:24:29.790Z,44.60
2018-08-07T00:26:57.990Z,44.80
2018-08-07T00:29:26.465Z,44.80
2018-08-07T00:31:54.732Z,44.90
2018-08-07T00:34:22.961Z,45.00
2018-08-07T00:36:51.172Z,45.10
2018-08-07T00:39:19.401Z,45.20
2018-08-07T00:41:47.609Z,45.20
2018-08-07T00:44:15.826Z,45.30
2018-08-07T00:46:44.044Z,45.30
2018-08-07T00:49:12.259Z,45.50
2018-08-07T00:51:40.479Z,45.60
2018-08-07T00:54:08.725Z,45.80
2018-08-07T00:56:37.023Z,45.80
2018-08-07T00:59:05.662Z,45.90
2018-08-07T01:01:33.922Z,46.10
2018-08-07T01:04:02.311Z,46.20
2018-08-07T01:06:30.536Z,46.80
2018-08-07T01:08:58.763Z,46.40
2018-08-07T01:11:26.955Z,46.40
2018-08-07T01:13:55.137Z,46.50
2018-08-07T01:16:23.339Z,46.60
2018-08-07T01:18:52.163Z,46.70
2018-08-07T01:21:20.395Z,46.80
2018-08-07T01:23:48.611Z,46.80
2018-08-07T01:26:16.831Z,46.90
2018-08-07T01:28:45.092Z,47.00
2018-08-07T01:31:13.280Z,47.00
2018-08-07T01:33:41.652Z,47.10
2018-08-07T01:36:09.927Z,47.20
2018-08-07T01:38:38.170Z,47.30
2018-08-07T01:41:06.551Z,47.40
2018-08-07T01:43:34.794Z,47.60
2018-08-07T01:46:03.107Z,47.70
2018-08-07T01:48:31.354Z,47.90
2018-08-07T01:50:59.601Z,48.00
2018-08-07T01:53:27.823Z,48.30
2018-08-07T01:55:55.990Z,48.40
2018-08-07T01:58:24.211Z,48.50
2018-08-07T02:00:52.430Z,48.50
2018-08-07T02:03:20.752Z,48.80
2018-08-07T02:05:48.971Z,49.00
2018-08-07T02:08:17.211Z,49.50
2018-08-07T02:10:45.430Z,49.00
2018-08-07T02:13:13.627Z,49.10
2018-08-07T02:15:41.955Z,49.20
2018-08-07T02:18:10.163Z,49.20
2018-08-07T02:20:38.358Z,49.30
2018-08-07T02:23:06.616Z,49.40
2018-08-07T02:25:34.858Z,49.50
2018-08-07T02:28:03.074Z,49.40
2018-08-07T02:30:31.320Z,50.00
2018-08-07T02:32:59.491Z,49.60
2018-08-07T02:35:27.714Z,49.70
2018-08-07T02:37:55.943Z,49.80
2018-08-07T02:40:24.174Z,49.90
2018-08-07T02:42:52.438Z,50.00
2018-08-07T02:45:20.719Z,50.10
2018-08-07T02:47:49.217Z,50.30
2018-08-07T02:50:19.206Z,50.50
2018-08-07T02:52:47.455Z,50.50
2018-08-07T02:55:15.823Z,50.60
2018-08-07T02:57:44.612Z,50.80
2018-08-07T03:02:44.615Z,51.00
2018-08-07T03:05:12.845Z,51.10
2018-08-07T03:07:41.045Z,51.20
2018-08-07T03:10:10.080Z,51.40
2018-08-07T03:12:38.522Z,51.50
2018-08-07T03:15:08.662Z,51.80
2018-08-07T03:17:36.975Z,51.90
2018-08-07T03:22:33.195Z,52.20
2018-08-07T03:25:01.498Z,52.50
2018-08-07T03:27:29.703Z,52.70
2018-08-07T03:29:57.950Z,52.80
2018-08-07T03:32:26.179Z,53.10
2018-08-07T03:34:54.369Z,53.20
2018-08-07T03:37:22.614Z,53.30
2018-08-07T03:39:50.883Z,53.50
2018-08-07T03:42:19.169Z,53.60
2018-08-07T03:47:15.409Z,53.80
2018-08-07T03:49:43.676Z,53.70
2018-08-07T03:52:11.898Z,53.90
2018-08-07T03:54:40.223Z,53.90
2018-08-07T03:57:08.479Z,53.90
2018-08-07T03:59:36.729Z,54.10
2018-08-07T04:02:04.998Z,54.20
2018-08-07T04:04:33.260Z,54.30
2018-08-07T04:07:01.630Z,54.40
2018-08-07T04:09:29.881Z,54.50
2018-08-07T04:11:58.128Z,54.50
2018-08-07T04:14:26.367Z,54.60
2018-08-07T04:16:55.595Z,54.80
2018-08-07T04:19:25.632Z,55.00
2018-08-07T04:21:54.729Z,55.10
2018-08-07T04:24:23.151Z,55.30
2018-08-07T04:26:51.450Z,55.20
2018-08-07T04:29:19.725Z,55.40
2018-08-07T04:31:47.947Z,55.50
2018-08-07T04:34:16.234Z,55.70
2018-08-07T04:36:44.451Z,55.70
2018-08-07T04:39:13.578Z,55.80
2018-08-07T04:41:42.343Z,55.80
2018-08-07T04:44:10.770Z,55.90
2018-08-07T04:46:39.005Z,56.00
2018-08-07T04:49:07.364Z,56.10
2018-08-07T04:51:36.199Z,56.30
2018-08-07T04:54:04.750Z,56.40
2018-08-07T04:56:33.034Z,56.50
2018-08-07T04:59:01.446Z,56.70
2018-08-07T05:01:29.717Z,56.90
2018-08-07T05:03:57.998Z,57.10
2018-08-07T05:06:26.244Z,57.10
2018-08-07T05:08:54.514Z,57.10
2018-08-07T05:11:22.751Z,57.30
2018-08-07T05:13:51.276Z,57.40
2018-08-07T05:16:19.526Z,57.50
2018-08-07T05:18:47.907Z,57.80
2018-08-07T05:21:16.159Z,57.90
2018-08-07T05:23:44.558Z,57.70
2018-08-07T05:26:12.814Z,57.70
2018-08-07T05:28:41.150Z,57.70
2018-08-07T05:31:09.442Z,57.70
2018-08-07T05:33:37.688Z,57.60
2018-08-07T05:36:05.965Z,57.70
2018-08-07T05:38:34.215Z,57.70
2018-08-07T05:41:02.435Z,57.60
2018-08-07T05:43:30.690Z,57.50
2018-08-07T05:45:58.956Z,57.50
2018-08-07T05:48:27.199Z,57.60
2018-08-07T05:50:55.739Z,57.50
2018-08-07T05:53:23.910Z,57.50
2018-08-07T05:55:52.141Z,57.50
2018-08-07T05:58:20.363Z,57.50
2018-08-07T06:00:48.626Z,57.50
2018-08-07T06:03:16.868Z,57.50
2018-08-07T06:05:45.133Z,57.30
2018-08-07T06:08:13.408Z,57.10
2018-08-07T06:10:41.739Z,56.80
2018-08-07T06:13:09.928Z,56.60
2018-08-07T06:15:38.171Z,56.70
2018-08-07T06:18:06.547Z,56.50
2018-08-07T06:23:02.776Z,56.10
2018-08-07T06:25:31.140Z,56.40
2018-08-07T06:27:59.395Z,55.70
2018-08-07T06:30:27.623Z,55.60
2018-08-07T06:32:55.847Z,55.10
2018-08-07T06:35:24.201Z,54.80
2018-08-07T06:40:27.255Z,54.10
2018-08-07T06:42:55.537Z,53.90
2018-08-07T06:45:23.927Z,53.60
2018-08-07T06:47:52.224Z,53.50
2018-08-07T06:50:21.025Z,53.70
2018-08-07T06:52:49.963Z,52.90
2018-08-07T06:55:18.232Z,52.50
2018-08-07T06:57:46.515Z,52.20
2018-08-07T07:00:16.715Z,51.70
2018-08-07T07:02:45.118Z,51.50
2018-08-07T07:05:13.387Z,51.30
2018-08-07T07:07:41.705Z,51.20
2018-08-07T07:10:11.259Z,50.90
2018-08-07T07:12:40.062Z,50.20
2018-08-07T07:15:09.370Z,49.40
2018-08-07T07:17:37.650Z,48.90
2018-08-07T07:20:08.419Z,48.70
2018-08-07T07:22:36.738Z,48.40
2018-08-07T07:25:05.547Z,48.30
2018-08-07T07:27:34.126Z,48.10
2018-08-07T07:30:02.403Z,47.80
2018-08-07T07:32:30.646Z,47.70
2018-08-07T07:34:58.935Z,47.50
2018-08-07T07:37:27.155Z,47.50
2018-08-07T07:39:55.362Z,47.40
2018-08-07T07:44:51.766Z,46.70
2018-08-07T07:47:20.023Z,46.40
2018-08-07T07:49:48.322Z,46.20
2018-08-07T07:52:16.571Z,46.20
2018-08-07T07:54:44.867Z,46.00
2018-08-07T07:59:41.122Z,45.30
2018-08-07T08:02:09.334Z,45.00
2018-08-07T08:04:37.685Z,44.90
2018-08-07T08:07:05.994Z,44.90
2018-08-07T08:09:34.269Z,45.00
2018-08-07T08:12:02.546Z,44.80
2018-08-07T08:14:30.786Z,44.70
2018-08-07T08:16:59.082Z,44.60
2018-08-07T08:19:27.344Z,44.50
2018-08-07T08:21:57.862Z,44.50
2018-08-07T08:24:29.441Z,44.30
2018-08-07T08:27:00.437Z,44.10
2018-08-07T08:29:30.127Z,44.10
2018-08-07T08:32:06.532Z,43.90
2018-08-07T08:34:41.604Z,43.80
2018-08-07T08:37:16.370Z,43.60
2018-08-07T08:39:53.782Z,43.40
2018-08-07T08:42:24.631Z,43.20
2018-08-07T08:44:56.186Z,43.10
2018-08-07T08:47:26.668Z,42.90
2018-08-07T08:52:29.779Z,42.70
2018-08-07T08:55:01.740Z,42.30
2018-08-07T08:57:30.175Z,42.70
2018-08-07T08:59:58.403Z,41.90
2018-08-07T09:02:26.620Z,41.40
2018-08-07T09:04:54.900Z,41.10
2018-08-07T09:07:23.117Z,40.80
2018-08-07T09:12:19.322Z,40.20
2018-08-07T09:17:15.862Z,39.70
2018-08-07T09:19:44.172Z,39.30
2018-08-07T09:22:12.390Z,38.80
2018-08-07T09:24:40.796Z,38.10
2018-08-07T09:27:08.997Z,37.80
2018-08-07T09:29:37.242Z,38.00
2018-08-07T09:32:05.794Z,37.60
2018-08-07T09:34:34.055Z,37.40
2018-08-07T09:37:02.286Z,37.40
2018-08-07T09:41:58.535Z,37.50
2018-08-07T09:44:26.815Z,37.50
2018-08-07T09:46:55.082Z,37.50
2018-08-07T09:49:23.323Z,37.50
2018-08-07T09:51:51.562Z,37.50
2018-08-07T09:54:19.874Z,37.40
2018-08-07T09:56:48.116Z,36.80
2018-08-07T09:59:16.428Z,36.80
2018-08-07T10:01:50.159Z,36.70
2018-08-07T10:04:18.380Z,36.90
2018-08-07T10:06:46.602Z,36.90
2018-08-07T10:09:14.865Z,36.80
2018-08-07T10:11:43.086Z,36.60
2018-08-07T10:14:11.507Z,36.60
2018-08-07T10:16:39.763Z,36.70
2018-08-07T10:19:08.022Z,36.60
2018-08-07T10:21:36.288Z,36.50
2018-08-07T10:24:04.530Z,36.20
2018-08-07T10:26:32.764Z,35.90
2018-08-07T10:29:01.013Z,35.80
2018-08-07T10:31:29.270Z,35.60
2018-08-07T10:36:25.563Z,35.20
2018-08-07T10:38:54.247Z,34.90
2018-08-07T10:41:22.537Z,34.30
2018-08-07T10:43:50.928Z,34.20
2018-08-07T10:46:19.077Z,34.10
2018-08-07T10:48:47.366Z,33.90
2018-08-07T10:51:15.610Z,33.50
2018-08-07T10:53:43.915Z,33.50
2018-08-07T10:56:12.179Z,33.30
2018-08-07T10:58:40.451Z,33.30
2018-08-07T11:01:09.352Z,33.30
2018-08-07T11:03:37.579Z,33.30
2018-08-07T11:06:05.864Z,33.20
2018-08-07T11:08:34.077Z,33.00
2018-08-07T11:13:30.386Z,32.80
2018-08-07T11:15:58.638Z,32.20
2018-08-07T11:18:26.878Z,32.10
2018-08-07T11:20:55.115Z,31.70
2018-08-07T11:23:23.342Z,31.70
2018-08-07T11:28:19.600Z,31.50
2018-08-07T11:30:47.895Z,31.30
2018-08-07T11:33:16.144Z,31.50
2018-08-07T11:35:44.505Z,30.90
2018-08-07T11:38:12.784Z,30.90
2018-08-07T11:40:41.052Z,30.60
2018-08-07T11:43:09.307Z,30.50
2018-08-07T11:45:37.540Z,30.20
2018-08-07T11:48:05.907Z,30.10
2018-08-07T11:53:02.131Z,30.00
2018-08-07T11:55:30.351Z,29.80
2018-08-07T11:57:58.597Z,29.80
2018-08-07T12:00:30.502Z,29.80
2018-08-07T12:02:59.189Z,29.70
2018-08-07T12:05:27.674Z,29.40
2018-08-07T12:07:56.019Z,29.30
2018-08-07T12:10:24.209Z,29.30
2018-08-07T12:12:52.495Z,28.80
2018-08-07T12:15:22.194Z,28.50
2018-08-07T12:17:50.471Z,28.50
2018-08-07T12:20:18.717Z,28.40
2018-08-07T12:22:46.978Z,28.30
2018-08-07T12:25:16.107Z,28.10
2018-08-07T12:27:44.427Z,28.20
2018-08-07T12:30:16.889Z,27.80
2018-08-07T12:32:45.480Z,27.50
2018-08-07T12:35:14.033Z,27.50
2018-08-07T12:37:42.226Z,27.40
2018-08-07T12:40:19.916Z,27.50
2018-08-07T12:42:48.511Z,27.40
2018-08-07T12:45:16.724Z,27.30
2018-08-07T12:47:45.486Z,26.90
2018-08-07T12:50:14.764Z,26.70
2018-08-07T12:52:43.074Z,26.70
2018-08-07T12:55:13.091Z,26.60
2018-08-07T12:57:41.348Z,26.70
2018-08-07T13:00:12.206Z,26.70
2018-08-07T13:02:40.469Z,26.60
2018-08-07T13:05:08.791Z,26.40
2018-08-07T13:07:37.054Z,26.30
2018-08-07T13:10:08.447Z,26.30
2018-08-07T13:12:36.720Z,26.20
2018-08-07T13:15:06.246Z,26.10
2018-08-07T13:17:34.472Z,26.10
2018-08-07T13:20:03.049Z,25.90
2018-08-07T13:24:59.354Z,26.20
2018-08-07T13:27:28.503Z,25.50
2018-08-07T13:29:56.795Z,25.40
2018-08-07T13:32:25.051Z,25.50
2018-08-07T13:34:53.476Z,25.20
2018-08-07T13:37:21.871Z,25.10
2018-08-07T13:39:50.100Z,25.30
2018-08-07T13:42:18.408Z,25.20
2018-08-07T13:44:46.638Z,25.10
2018-08-07T13:47:14.930Z,25.10
2018-08-07T13:49:43.229Z,24.70
2018-08-07T13:52:11.700Z,24.10
2018-08-07T13:54:39.968Z,23.20
2018-08-07T13:57:08.236Z,22.20
2018-08-07T13:59:36.528Z,21.50
2018-08-07T14:02:04.775Z,21.20
2018-08-07T14:04:33.158Z,20.40
2018-08-07T14:07:01.430Z,20.50
2018-08-07T14:09:29.669Z,20.50
2018-08-07T14:14:25.878Z,19.50
2018-08-07T14:16:54.143Z,19.10
2018-08-07T14:19:22.418Z,18.70
2018-08-07T14:21:50.660Z,18.10
2018-08-07T14:24:18.958Z,17.80
2018-08-07T14:26:47.239Z,17.80
2018-08-07T14:29:15.784Z,17.80
2018-08-07T14:31:44.362Z,17.40
2018-08-07T14:34:12.775Z,17.20
2018-08-07T14:36:41.051Z,16.90
2018-08-07T14:39:10.385Z,16.10
2018-08-07T14:44:06.911Z,16.20
2018-08-07T14:46:35.272Z,16.20
2018-08-07T14:49:03.503Z,16.00
2018-08-07T14:51:31.856Z,15.40
2018-08-07T14:54:00.192Z,15.10
2018-08-07T14:56:28.594Z,15.10
2018-08-07T14:58:56.833Z,14.90
2018-08-07T15:01:25.074Z,15.00
2018-08-07T15:03:55.080Z,15.20
2018-08-07T15:06:23.404Z,15.60
2018-08-07T15:08:51.678Z,15.20
2018-08-07T15:11:19.969Z,15.10
2018-08-07T15:13:48.222Z,14.80
2018-08-07T15:16:16.474Z,15.00
2018-08-07T15:18:44.772Z,15.00
2018-08-07T15:21:13.051Z,15.00
2018-08-07T15:23:41.975Z,15.10
2018-08-07T15:26:10.314Z,15.20
2018-08-07T15:28:38.566Z,15.10
2018-08-07T15:31:06.828Z,15.00
2018-08-07T15:33:35.283Z,15.00
2018-08-07T15:36:03.631Z,15.00
2018-08-07T15:38:31.905Z,15.10
2018-08-07T15:41:00.132Z,15.30
2018-08-07T15:43:28.412Z,15.20
2018-08-07T15:45:56.707Z,15.10
2018-08-07T15:48:24.985Z,15.20
2018-08-07T15:50:53.278Z,15.30
2018-08-07T15:53:21.567Z,15.20
2018-08-07T15:55:49.787Z,15.50
2018-08-07T15:58:18.049Z,16.00
2018-08-07T16:00:46.299Z,16.60
2018-08-07T16:03:14.615Z,17.10
2018-08-07T16:05:42.852Z,17.40
2018-08-07T16:08:11.083Z,17.80
2018-08-07T16:10:39.359Z,18.30
2018-08-07T16:13:07.683Z,18.60
2018-08-07T16:15:35.939Z,19.00
2018-08-07T16:18:04.358Z,19.40
2018-08-07T16:20:33.626Z,19.60
2018-08-07T16:23:01.900Z,19.80
2018-08-07T16:25:30.619Z,20.20
2018-08-07T16:27:58.884Z,20.40
2018-08-07T16:30:27.439Z,20.60
2018-08-07T16:32:55.697Z,21.00
2018-08-07T16:35:24.048Z,21.00
2018-08-07T16:37:52.314Z,21.00
2018-08-07T16:40:22.409Z,21.10
2018-08-07T16:42:51.716Z,21.10
2018-08-07T16:45:20.866Z,21.00
2018-08-07T16:47:49.229Z,21.10
2018-08-07T16:50:23.720Z,21.10
2018-08-07T16:52:53.009Z,21.00
2018-08-07T16:55:22.528Z,21.10
2018-08-07T16:57:50.755Z,21.10
2018-08-07T17:00:19.083Z,21.10
2018-08-07T17:02:47.387Z,21.30
2018-08-07T17:05:16.732Z,21.30
2018-08-07T17:07:45.454Z,21.50
2018-08-07T17:10:19.034Z,22.00
2018-08-07T17:12:47.510Z,22.50
2018-08-07T17:15:15.759Z,22.90
2018-08-07T17:17:44.680Z,23.20
2018-08-07T17:20:17.983Z,23.40
2018-08-07T17:22:46.562Z,23.60
2018-08-07T17:25:16.190Z,23.70
2018-08-07T17:27:45.356Z,23.80
2018-08-07T17:30:18.391Z,23.90
2018-08-07T17:35:18.085Z,24.20
2018-08-07T17:37:46.903Z,24.30
2018-08-07T17:40:16.462Z,24.30
2018-08-07T17:42:44.764Z,24.50
2018-08-07T17:45:13.259Z,24.60
2018-08-07T17:47:41.519Z,24.80
2018-08-07T17:50:13.211Z,25.00
2018-08-07T17:52:41.992Z,25.30
2018-08-07T17:55:10.978Z,25.40
2018-08-07T17:57:39.827Z,25.50
2018-08-07T18:00:12.160Z,25.50
2018-08-07T18:02:41.734Z,25.40
2018-08-07T18:05:11.094Z,25.20
2018-08-07T18:07:40.439Z,25.30
2018-08-07T18:10:11.191Z,25.40
2018-08-07T18:12:39.891Z,25.50
2018-08-07T18:15:11.245Z,25.90
2018-08-07T18:17:40.363Z,26.20
2018-08-07T18:22:44.526Z,26.60
2018-08-07T18:25:12.897Z,26.50
2018-08-07T18:27:41.168Z,26.50
2018-08-07T18:30:14.838Z,27.00
2018-08-07T18:32:43.503Z,27.80
2018-08-07T18:35:14.506Z,27.90
2018-08-07T18:37:42.818Z,28.50
2018-08-07T18:40:11.244Z,28.90
2018-08-07T18:42:39.471Z,28.70
2018-08-07T18:45:09.799Z,28.70
2018-08-07T18:47:38.615Z,28.90
2018-08-07T18:50:07.835Z,29.40
2018-08-07T18:52:36.135Z,29.80
2018-08-07T18:57:33.734Z,30.00
2018-08-07T19:00:02.039Z,29.90
2018-08-07T19:02:30.291Z,29.90
2018-08-07T19:05:00.041Z,30.10
2018-08-07T19:07:28.360Z,31.30
2018-08-07T19:09:56.575Z,31.40
2018-08-07T19:12:25.886Z,31.10
2018-08-07T19:14:54.179Z,31.10
2018-08-07T19:17:22.827Z,30.90
2018-08-07T19:19:51.172Z,30.80
2018-08-07T19:22:19.626Z,31.00
2018-08-07T19:27:17.214Z,31.70
2018-08-07T19:29:45.461Z,31.90
2018-08-07T19:32:14.058Z,31.70
2018-08-07T19:34:42.527Z,31.70
2018-08-07T19:37:10.883Z,32.40
2018-08-07T19:39:39.451Z,32.30
2018-08-07T19:42:07.824Z,31.60
2018-08-07T19:49:32.510Z,32.00
2018-08-07T19:52:01.058Z,32.60
2018-08-07T19:54:29.770Z,33.20
2018-08-07T19:56:58.634Z,33.80
2018-08-07T19:59:27.000Z,33.60
2018-08-07T20:01:56.142Z,33.30
2018-08-07T20:04:24.782Z,33.10
2018-08-07T20:06:53.434Z,33.00
2018-08-07T20:09:21.834Z,33.20
2018-08-07T20:11:50.366Z,33.50
2018-08-07T20:14:18.837Z,33.40
2018-08-07T20:16:47.226Z,33.50
2018-08-07T20:19:16.042Z,33.40
2018-08-07T20:21:44.492Z,33.40
2018-08-07T20:24:13.965Z,33.40
2018-08-07T20:26:42.602Z,33.70
2018-08-07T20:29:12.691Z,33.80
2018-08-07T20:31:42.363Z,33.70
2018-08-07T20:34:11.622Z,33.80
2018-08-07T20:36:40.981Z,33.70
2018-08-07T20:39:11.557Z,33.70
2018-08-07T20:41:40.177Z,33.80
2018-08-07T20:44:08.685Z,33.90
2018-08-07T20:46:37.190Z,34.10
2018-08-07T20:49:05.520Z,34.00
2018-08-07T20:51:33.816Z,34.10
2018-08-07T20:54:02.336Z,34.20
2018-08-07T20:56:30.564Z,34.20
2018-08-07T20:58:58.832Z,34.30
2018-08-07T21:01:27.109Z,34.80
2018-08-07T21:03:55.303Z,34.40
2018-08-07T21:06:23.629Z,34.40
2018-08-07T21:08:51.866Z,34.50
2018-08-07T21:11:20.286Z,34.50
2018-08-07T21:13:48.582Z,34.50
2018-08-07T21:18:44.887Z,34.60
2018-08-07T21:21:13.081Z,34.70
2018-08-07T21:23:41.442Z,34.70
2018-08-07T21:26:10.070Z,34.80
2018-08-07T21:28:38.549Z,34.80
2018-08-07T21:31:06.758Z,34.90
2018-08-07T21:33:35.024Z,35.00
2018-08-07T21:36:03.293Z,35.10
2018-08-07T21:38:31.563Z,35.10
2018-08-07T21:40:59.799Z,35.20
2018-08-07T21:43:28.039Z,35.30
2018-08-07T21:45:56.363Z,35.40
2018-08-07T21:48:24.611Z,35.50
2018-08-07T21:50:52.847Z,35.60
2018-08-07T21:53:21.119Z,35.70
2018-08-07T21:55:49.402Z,35.70
2018-08-07T21:58:17.619Z,35.70
2018-08-07T22:00:47.188Z,35.70
2018-08-07T22:03:15.454Z,35.70
2018-08-07T22:05:44.238Z,35.70
2018-08-07T22:08:13.804Z,35.80
2018-08-07T22:10:42.279Z,35.80
2018-08-07T22:13:10.451Z,35.90
2018-08-07T22:15:38.831Z,35.80
2018-08-07T22:18:08.488Z,35.90
2018-08-07T22:20:36.695Z,36.00
2018-08-07T22:23:04.984Z,36.10
2018-08-07T22:25:33.251Z,36.10
2018-08-07T22:28:01.488Z,36.20
2018-08-07T22:30:29.853Z,36.20
2018-08-07T22:32:58.091Z,36.30
2018-08-07T22:35:26.355Z,36.30
2018-08-07T22:37:54.606Z,36.30
2018-08-07T22:40:22.826Z,36.40
2018-08-07T22:42:51.062Z,36.50
2018-08-07T22:45:19.634Z,36.60
2018-08-07T22:47:47.904Z,36.70
2018-08-07T22:50:17.502Z,36.90
2018-08-07T22:52:45.810Z,37.10
2018-08-07T22:55:15.694Z,37.10
2018-08-07T22:57:43.945Z,37.10
2018-08-07T23:02:42.468Z,37.20
2018-08-07T23:05:11.484Z,37.50
2018-08-07T23:07:39.713Z,37.30
2018-08-07T23:10:10.922Z,37.30
2018-08-07T23:12:39.316Z,37.40
2018-08-07T23:15:10.286Z,37.60
2018-08-07T23:17:38.578Z,37.50
2018-08-07T23:20:07.675Z,37.70
2018-08-07T23:22:35.912Z,37.70
2018-08-07T23:25:04.976Z,37.70
2018-08-07T23:27:33.265Z,37.70
2018-08-07T23:30:01.537Z,37.80
2018-08-07T23:32:29.747Z,37.90
2018-08-07T23:34:57.986Z,37.90
2018-08-07T23:37:26.410Z,37.80
2018-08-07T23:42:22.874Z,38.00
2018-08-07T23:44:51.217Z,38.10
2018-08-07T23:47:19.522Z,38.70
2018-08-07T23:49:47.760Z,37.90
2018-08-07T23:52:16.102Z,37.90
2018-08-07T23:54:44.561Z,38.30
2018-08-07T23:57:12.847Z,39.20
2018-08-07T23:59:41.167Z,39.20
